Flight Track Log - Related Links

Times and Time Zones

All times are in EDT time to prevent confusion due to time zone crossing. See the SWA1635 flight status page for this flight to view local times or setup timezone preferences in your user account.

Time Position Orientation Groundspeed Altitude Reporting Facility
EDT Latitude Longitude Course Direction KTS MPH feet Rate Location/Type
Sun 12:11:06 PM 32.0981 -110.9186 164° South 180 207 3,400  Level Albuquerque Center
Sun 12:11:48 PM 32.0611 -110.9058 164° South 205 236 4,600 1,814 Climbing Albuquerque Center
Sun 12:12:32 PM 32.0525 -110.9536 258° West 275 316 6,000 1,770 Climbing Albuquerque Center
Sun 12:12:49 PM 32.0622 -110.9761 297° West 256 295 6,400 2,419 Climbing Albuquerque Center
Sun 12:13:34 PM 32.0936 -111.0283 305° West 275 316 8,500 2,951 Climbing Albuquerque Center
Sun 12:13:50 PM 32.1050 -111.0528 299° West 279 321 9,400 2,032 Climbing Albuquerque Center
Sun 12:14:36 PM 32.1356 -111.1089 303° West 283 326 10,600 1,833 Climbing Albuquerque Center
Sun 12:15:38 PM 32.1881 -111.2056 303° West 339 390 12,700 2,274 Climbing Albuquerque Center
Sun 12:16:40 PM 32.2433 -111.3067 303° West 362 417 15,300 2,468 Climbing Albuquerque Center
Sun 12:17:42 PM 32.2975 -111.4114 301° West 370 426 17,800 2,032 Climbing Albuquerque Center
Sun 12:18:44 PM 32.3539 -111.5183 302° West 379 436 19,500 1,984 Climbing Albuquerque Center
Sun 12:19:46 PM 32.4258 -111.6528 302° West 398 458 21,900 2,032 Climbing Albuquerque Center
Sun 12:20:48 PM 32.4861 -111.7675 302° West 407 468 23,700 1,645 Climbing Albuquerque Center
Sun 12:21:50 PM 32.5469 -111.8828 302° West 412 474 25,300 1,500 Climbing Albuquerque Center
Sun 12:22:52 PM 32.6097 -112.0025 302° West 420 483 26,800 1,500 Climbing Albuquerque Center
Sun 12:23:54 PM 32.6717 -112.1222 302° West 425 489 28,400 1,548 Climbing Albuquerque Center
Sun 12:24:56 PM 32.7389 -112.2533 301° West 427 491 30,000 1,500 Climbing Albuquerque Center
Sun 12:25:58 PM 32.7997 -112.3700 302° West 422 486 31,500 1,452 Climbing Albuquerque Center
Sun 12:27:00 PM 32.8597 -112.4861 302° West 418 481 33,000 1,306 Climbing Albuquerque Center
Sun 12:28:02 PM 32.9303 -112.6225 302° West 410 472 34,200 1,113 Climbing Albuquerque Center
Sun 12:29:04 PM 32.9992 -112.7300 307° West 411 473 35,300 823 Climbing Albuquerque Center
Sun 12:30:06 PM 33.0744 -112.8292 312° West 407 468 35,900 290 Climbing Albuquerque Center
Sun 12:31:08 PM 33.1492 -112.9275 312° West 404 465 35,900  Level Albuquerque Center
Sun 12:32:10 PM 33.2242 -113.0281 312° West 406 467 35,900  Level Albuquerque Center
Sun 12:33:12 PM 33.3153 -113.1494 312° West 410 472 35,900  Level Albuquerque Center
Sun 12:34:14 PM 33.3914 -113.2497 312° West 409 471 35,900  Level Albuquerque Center
Sun 12:35:16 PM 33.4661 -113.3519 311° West 408 470 35,900  Level Albuquerque Center
Sun 12:36:18 PM 33.5425 -113.4544 312° West 411 473 35,900  Level Albuquerque Center
Sun 12:37:20 PM 33.6178 -113.5564 312° West 411 473 35,900 48 Level Albuquerque Center
Sun 12:38:22 PM 33.6925 -113.6592 311° West 410 472 36,000 48 Climbing Albuquerque Center
Sun 12:39:24 PM 33.7822 -113.7833 311° West 410 472 36,000  Level Albuquerque Center
Sun 12:40:26 PM 33.8333 -113.9086 296° West 414 476 36,000  Level Albuquerque Center
Sun 12:41:28 PM 33.8789 -114.0389 293° West 419 482 36,000 -48 Level Albuquerque Center
Sun 12:42:31 PM 33.9258 -114.1675 294° West 420 483 35,900 -48 Descending Albuquerque Center
Sun 12:43:33 PM 33.9703 -114.2958 293° West 420 483 35,900  Level Albuquerque Center
Sun 12:44:35 PM 34.0233 -114.4492 293° West 417 480 35,900  Level Albuquerque Center
Sun 12:44:58 PM 34.0347 -114.4800 294° West 417 480 35,900  Level Los Angeles Center
Sun 12:46:00 PM 34.0772 -114.6081 292° West 416 479 35,900  Level Los Angeles Center
Sun 12:47:02 PM 34.1047 -114.7717 282° West 424 488 35,900 -290 Level Los Angeles Center
Sun 12:48:04 PM 34.1050 -114.9117 270° West 422 486 35,300 -768 Descending Los Angeles Center
Sun 12:49:07 PM 34.1067 -115.0531 271° West 424 488 34,300 -672 Descending Los Angeles Center
Sun 12:50:09 PM 34.1089 -115.1953 271° West 425 489 33,900 -194 Descending Los Angeles Center
Sun 12:51:11 PM 34.1103 -115.3678 271° West 428 493 33,900  Level Los Angeles Center
Sun 12:52:13 PM 34.1117 -115.5114 271° West 430 495 33,900  Level Los Angeles Center
Sun 12:53:15 PM 34.1122 -115.6553 270° West 433 498 33,900  Level Los Angeles Center
Sun 12:54:17 PM 34.1092 -115.7994 269° West 433 498 33,900 -192 Level Los Angeles Center
Sun 12:55:20 PM 34.0872 -115.9411 259° West 430 495 33,500 -774 Descending Los Angeles Center
Sun 12:56:21 PM 34.0614 -116.1131 260° West 436 502 32,300 -976 Descending Los Angeles Center
Sun 12:57:23 PM 34.0442 -116.2264 260° West 435 501 31,500 -1,536 Descending Los Angeles Center
Sun 12:58:26 PM 34.0192 -116.3986 260° West 436 502 29,100 -2,304 Descending Los Angeles Center
Sun 12:59:28 PM 33.9997 -116.5425 261° West 437 503 26,700 -2,274 Descending Los Angeles Center
Sun 01:00:30 PM 33.9897 -116.6794 265° West 420 483 24,400 -2,226 Descending Los Angeles Center
Sun 01:01:32 PM 33.9792 -116.8139 265° West 410 472 22,100 -2,432 Descending Los Angeles Center
Sun 01:02:21 PM 33.9667 -116.9333 263° West 383 441 19,900 -2,422 Descending Southern California TRACON
Sun 01:03:21 PM 33.9500 -117.0667 261° West 377 434 17,700 -1,450 Descending Southern California TRACON
Sun 01:04:21 PM 33.9500 -117.1833 270° West 358 412 17,000 -950 Descending Southern California TRACON
Sun 01:05:21 PM 33.9333 -117.3167 261° West 363 418 15,800 -1,476 Descending Southern California TRACON
Sun 01:06:27 PM 33.9500 -117.4333 280° West 336 387 13,900 -1,700 Descending Southern California TRACON
Sun 01:07:21 PM 33.9833 -117.5167 296° West 316 364 12,400 -1,650 Descending Southern California TRACON
Sun 01:08:27 PM 34.0167 -117.6333 289° West 370 426 10,600 -1,388 Descending Southern California TRACON
Sun 01:09:22 PM 34.0000 -117.7167 256° West 287 330 9,600 -1,252 Descending Southern California TRACON
Sun 01:10:22 PM 34.0000 -117.8167 270° West 289 333 8,200 -1,400 Descending Southern California TRACON
Sun 01:11:22 PM 33.9833 -117.9167 259° West 283 326 6,800 -1,200 Descending Southern California TRACON
Sun 01:12:22 PM 33.9667 -118.0167 259° West 268 308 5,800 -950 Descending Southern California TRACON
Sun 01:13:22 PM 33.9667 -118.0833 270° West 238 274 4,900 -947 Descending Southern California TRACON
Sun 01:13:57 PM 33.9636 -118.1261 265° West 242 278 4,300 -1,113 Descending Los Angeles Center
Sun 01:14:59 PM 33.9569 -118.2008 264° West 232 267 3,100 -960 Descending Los Angeles Center
Sun 01:16:02 PM 33.9492 -118.2622 261° West 205 236 2,300 -912 Descending Los Angeles Center
Sun 01:17:04 PM 33.9439 -118.3200 264° West 162 186 1,200 -919 Descending Los Angeles Center
Sun 01:18:06 PM 33.9400 -118.3678 264° West 151 174 400 -532 Descending Los Angeles Center
Sun 01:19:08 PM 33.9353 -118.4128 263° West 149 171 100 -290 Descending Los Angeles Center
Sun 01:21:00 PM 33.9333 -118.4000 North  Level FlightAware Approximate

Login

Don't have an account? Register now (free) for customized features, flight alerts, and more!